createdAt,value
2017-03-26T00:00:18.717Z,5.37
2017-03-26T00:01:19.961Z,5.23
2017-03-26T00:02:21.219Z,5.27
2017-03-26T00:03:22.514Z,5.25
2017-03-26T00:04:23.738Z,5.27
2017-03-26T00:05:24.999Z,5.27
2017-03-26T00:06:26.250Z,5.17
2017-03-26T00:07:27.521Z,5.3
2017-03-26T00:08:28.735Z,5.31
2017-03-26T00:09:29.979Z,5.16
2017-03-26T00:10:31.227Z,5.23
2017-03-26T00:11:32.501Z,5.17
2017-03-26T00:12:33.747Z,5.14
2017-03-26T00:13:34.996Z,5.22
2017-03-26T00:14:36.336Z,5.12
2017-03-26T00:15:37.631Z,5.12
2017-03-26T00:16:38.878Z,5.14
2017-03-26T00:17:40.111Z,5.13
2017-03-26T00:18:41.366Z,5.1
2017-03-26T00:19:42.581Z,5.17
2017-03-26T00:20:43.872Z,5.14
2017-03-26T00:21:45.191Z,5.12
2017-03-26T00:22:46.422Z,5.12
2017-03-26T00:23:47.651Z,5.14
2017-03-26T00:24:48.886Z,5.12
2017-03-26T00:25:50.147Z,5.1
2017-03-26T00:26:51.366Z,5.14
2017-03-26T00:27:52.597Z,5.14
2017-03-26T00:28:53.851Z,5.19
2017-03-26T00:29:55.073Z,5.13
2017-03-26T00:30:56.315Z,5.07
2017-03-26T00:31:57.553Z,5.09
2017-03-26T00:32:58.796Z,5.09
2017-03-26T00:34:00.082Z,5.04
2017-03-26T00:35:01.322Z,5.04
2017-03-26T00:36:02.553Z,5.02
2017-03-26T00:37:03.846Z,5.07
2017-03-26T00:38:05.085Z,4.98
2017-03-26T00:39:06.346Z,4.99
2017-03-26T00:40:07.709Z,4.95
2017-03-26T00:41:08.937Z,4.95
2017-03-26T00:42:10.181Z,4.95
2017-03-26T00:43:11.411Z,4.92
2017-03-26T00:44:12.650Z,4.92
2017-03-26T00:45:13.908Z,4.92
2017-03-26T00:46:15.164Z,4.92
2017-03-26T00:47:16.378Z,4.91
2017-03-26T00:48:17.636Z,4.86
2017-03-26T00:49:18.939Z,4.86
2017-03-26T00:50:20.170Z,4.84
2017-03-26T00:51:21.465Z,4.96
2017-03-26T00:52:22.700Z,4.92
2017-03-26T00:53:24.006Z,4.88
2017-03-26T00:54:25.295Z,4.89
2017-03-26T00:55:26.546Z,4.84
2017-03-26T00:56:27.794Z,4.84
2017-03-26T00:57:29.008Z,4.79
2017-03-26T00:58:30.285Z,4.83
2017-03-26T00:59:31.627Z,4.84
2017-03-26T01:00:32.865Z,4.8
2017-03-26T01:01:34.104Z,4.76
2017-03-26T01:02:35.334Z,4.7
2017-03-26T01:03:36.566Z,4.76
2017-03-26T01:04:37.816Z,4.7
2017-03-26T01:05:39.174Z,4.69
2017-03-26T01:06:40.394Z,4.73
2017-03-26T01:07:41.654Z,4.7
2017-03-26T01:08:42.884Z,4.67
2017-03-26T01:09:44.138Z,4.58
2017-03-26T01:10:45.391Z,4.61
2017-03-26T01:11:46.652Z,4.65
2017-03-26T01:12:47.891Z,4.58
2017-03-26T01:13:49.139Z,4.62
2017-03-26T01:14:50.480Z,4.55
2017-03-26T01:15:51.724Z,4.59
2017-03-26T01:16:52.984Z,4.51
2017-03-26T01:17:54.225Z,4.58
2017-03-26T01:18:55.562Z,4.58
2017-03-26T01:19:56.777Z,4.62
2017-03-26T01:20:58.005Z,4.51
2017-03-26T01:21:59.249Z,4.54
2017-03-26T01:23:00.503Z,4.54
2017-03-26T01:24:01.756Z,4.61
2017-03-26T01:25:02.988Z,4.54
2017-03-26T01:26:04.268Z,4.5
2017-03-26T01:27:05.497Z,4.51
2017-03-26T01:28:06.734Z,4.47
2017-03-26T01:29:07.977Z,4.42
2017-03-26T01:30:09.288Z,4.37
2017-03-26T01:31:10.530Z,4.46
2017-03-26T01:32:11.909Z,4.46
2017-03-26T01:33:13.164Z,4.47
2017-03-26T01:34:14.423Z,4.44
2017-03-26T01:35:15.755Z,4.4
2017-03-26T01:36:16.989Z,4.32
2017-03-26T01:37:18.323Z,4.34
2017-03-26T01:38:19.570Z,4.29
2017-03-26T01:39:20.876Z,4.34
2017-03-26T01:40:22.058Z,4.29
2017-03-26T01:41:23.293Z,4.29
2017-03-26T01:42:24.570Z,4.29
2017-03-26T01:43:25.865Z,4.28
2017-03-26T01:44:27.071Z,4.32
2017-03-26T01:45:28.314Z,4.28
2017-03-26T01:46:29.547Z,4.32
2017-03-26T01:47:30.775Z,4.42
2017-03-26T01:48:32.023Z,4.32
2017-03-26T01:49:33.286Z,4.4
2017-03-26T01:50:34.525Z,4.43
2017-03-26T01:51:35.790Z,4.34
2017-03-26T01:52:37.075Z,4.28
2017-03-26T01:53:38.306Z,4.39
2017-03-26T01:54:39.661Z,4.43
2017-03-26T01:55:40.876Z,4.46
2017-03-26T01:56:42.168Z,4.51
2017-03-26T01:57:43.412Z,4.47
2017-03-26T01:58:44.643Z,4.51
2017-03-26T01:59:45.886Z,4.37
2017-03-26T02:00:47.112Z,4.62
2017-03-26T02:01:48.348Z,4.58
2017-03-26T02:02:49.605Z,4.57
2017-03-26T02:03:50.914Z,4.58
2017-03-26T02:04:52.187Z,4.62
2017-03-26T02:05:53.437Z,4.64
2017-03-26T02:06:54.683Z,4.55
2017-03-26T02:07:55.982Z,4.65
2017-03-26T02:08:57.225Z,4.64
2017-03-26T02:09:58.452Z,4.59
2017-03-26T02:10:59.751Z,4.67
2017-03-26T02:12:01.028Z,4.58
2017-03-26T02:13:02.269Z,4.65
2017-03-26T02:14:03.486Z,4.61
2017-03-26T02:15:04.719Z,4.64
2017-03-26T02:16:05.958Z,4.75
2017-03-26T02:17:07.267Z,4.72
2017-03-26T02:18:08.495Z,4.77
2017-03-26T02:19:09.799Z,4.88
2017-03-26T02:20:11.034Z,4.89
2017-03-26T02:21:12.300Z,4.92
2017-03-26T02:22:13.532Z,5.01
2017-03-26T02:23:14.764Z,5.13
2017-03-26T02:24:16.018Z,5.13
2017-03-26T02:25:17.254Z,5.12
2017-03-26T02:26:18.492Z,5.2
2017-03-26T02:27:19.738Z,5.14
2017-03-26T02:28:20.979Z,5.12
2017-03-26T02:29:22.236Z,5.14
2017-03-26T02:30:23.522Z,5.25
2017-03-26T02:31:24.839Z,5.25
2017-03-26T02:32:25.960Z,5.28
2017-03-26T02:33:27.194Z,5.27
2017-03-26T02:34:28.430Z,5.3
2017-03-26T02:35:29.672Z,5.3
2017-03-26T02:36:30.893Z,5.4
2017-03-26T02:37:32.133Z,5.32
2017-03-26T02:38:33.367Z,5.45
2017-03-26T02:39:34.600Z,5.49
2017-03-26T02:40:35.871Z,5.4
2017-03-26T02:41:37.115Z,5.45
2017-03-26T02:42:38.351Z,5.5
2017-03-26T02:43:39.599Z,5.49
2017-03-26T02:44:40.984Z,5.56
2017-03-26T02:45:42.111Z,5.48
2017-03-26T02:46:43.354Z,5.59
2017-03-26T02:47:44.594Z,5.56
2017-03-26T02:48:45.861Z,5.66
2017-03-26T02:49:47.124Z,5.66
2017-03-26T02:50:48.395Z,5.73
2017-03-26T02:51:49.606Z,5.66
2017-03-26T02:52:50.843Z,5.77
2017-03-26T02:53:52.088Z,5.78
2017-03-26T02:54:53.334Z,5.83
2017-03-26T02:55:54.621Z,5.77
2017-03-26T02:56:55.854Z,5.82
2017-03-26T02:57:57.133Z,5.81
2017-03-26T02:58:58.373Z,5.88
2017-03-26T02:59:59.627Z,5.75
2017-03-26T03:01:00.855Z,5.81
2017-03-26T03:02:02.094Z,5.83
2017-03-26T03:03:03.548Z,5.85
2017-03-26T03:04:04.796Z,5.85
2017-03-26T03:05:06.018Z,5.82
2017-03-26T03:06:07.247Z,5.86
2017-03-26T03:07:08.478Z,5.88
2017-03-26T03:08:09.717Z,5.89
2017-03-26T03:09:10.956Z,5.89
2017-03-26T03:10:12.194Z,5.92
2017-03-26T03:11:13.436Z,5.98
2017-03-26T03:12:14.678Z,5.96
2017-03-26T03:13:15.901Z,5.95
2017-03-26T03:14:17.263Z,5.96
2017-03-26T03:15:18.528Z,6
2017-03-26T03:16:19.788Z,6.01
2017-03-26T03:17:21.028Z,6
2017-03-26T03:18:22.284Z,6
2017-03-26T03:19:23.525Z,5.98
2017-03-26T03:20:24.769Z,6.01
2017-03-26T03:21:26.022Z,6.06
2017-03-26T03:22:27.361Z,6
2017-03-26T03:23:28.556Z,6.03
2017-03-26T03:24:29.844Z,6
2017-03-26T03:25:31.081Z,5.98
2017-03-26T03:26:32.322Z,6
2017-03-26T03:27:33.570Z,6.03
2017-03-26T03:28:34.814Z,6.04
2017-03-26T03:29:36.062Z,5.96
2017-03-26T03:30:37.290Z,6.09
2017-03-26T03:31:38.523Z,5.93
2017-03-26T03:32:39.790Z,6.06
2017-03-26T03:33:41.005Z,6
2017-03-26T03:34:42.244Z,6.06
2017-03-26T03:35:43.483Z,6.06
2017-03-26T03:36:44.711Z,6.04
2017-03-26T03:37:45.952Z,6.07
2017-03-26T03:38:47.194Z,6.09
2017-03-26T03:39:48.437Z,6.09
2017-03-26T03:40:49.678Z,6.06
2017-03-26T03:41:50.927Z,6.1
2017-03-26T03:42:52.210Z,6.16
2017-03-26T03:43:53.437Z,6.1
2017-03-26T03:44:54.693Z,6.1
2017-03-26T03:45:55.936Z,6.18
2017-03-26T03:46:57.181Z,6.21
2017-03-26T03:47:58.458Z,6.16
2017-03-26T03:48:59.692Z,6.13
2017-03-26T03:50:00.942Z,6.26
2017-03-26T03:51:02.195Z,6.26
2017-03-26T03:52:03.393Z,6.29
2017-03-26T03:53:04.629Z,6.26
2017-03-26T03:54:05.985Z,6.3
2017-03-26T03:55:07.221Z,6.28
2017-03-26T03:56:08.461Z,6.19
2017-03-26T03:57:09.705Z,6.26
2017-03-26T03:58:10.974Z,6.33
2017-03-26T03:59:12.178Z,6.29
2017-03-26T04:00:13.430Z,6.3
2017-03-26T04:01:14.664Z,6.28
2017-03-26T04:02:15.984Z,6.47
2017-03-26T04:03:17.239Z,6.32
2017-03-26T04:04:18.467Z,6.3
2017-03-26T04:05:19.797Z,6.3
2017-03-26T04:06:21.068Z,6.3
2017-03-26T04:07:22.325Z,6.35
2017-03-26T04:08:23.565Z,6.35
2017-03-26T04:09:24.829Z,6.26
2017-03-26T04:10:26.038Z,6.28
2017-03-26T04:11:27.277Z,6.3
2017-03-26T04:12:28.512Z,6.3
2017-03-26T04:13:29.829Z,6.3
2017-03-26T04:14:31.084Z,6.3
2017-03-26T04:15:32.393Z,6.35
2017-03-26T04:16:33.632Z,6.38
2017-03-26T04:17:34.863Z,6.35
2017-03-26T04:18:36.116Z,6.4
2017-03-26T04:19:37.418Z,6.28
2017-03-26T04:20:38.765Z,6.32
2017-03-26T04:21:40.072Z,6.33
2017-03-26T04:22:41.336Z,6.38
2017-03-26T04:23:42.546Z,6.35
2017-03-26T04:24:43.836Z,6.41
2017-03-26T04:25:45.070Z,6.4
2017-03-26T04:26:46.545Z,6.35
2017-03-26T04:27:47.904Z,6.32
2017-03-26T04:28:49.130Z,6.35
2017-03-26T04:29:50.381Z,6.36
2017-03-26T04:30:51.605Z,6.35
2017-03-26T04:31:52.841Z,6.38
2017-03-26T04:32:54.078Z,6.4
2017-03-26T04:33:55.319Z,6.43
2017-03-26T04:34:56.573Z,6.4
2017-03-26T04:35:57.816Z,6.32
2017-03-26T04:36:59.083Z,6.41
2017-03-26T04:38:00.426Z,6.36
2017-03-26T04:39:01.691Z,6.41
2017-03-26T04:40:02.976Z,6.33
2017-03-26T04:41:04.181Z,6.41
2017-03-26T04:42:05.418Z,6.4
2017-03-26T04:43:06.667Z,6.4
2017-03-26T04:44:07.921Z,6.41
2017-03-26T04:45:09.157Z,6.35
2017-03-26T04:46:10.428Z,6.41
2017-03-26T04:47:11.705Z,6.38
2017-03-26T04:48:12.938Z,6.41
2017-03-26T04:49:14.173Z,6.35
2017-03-26T04:50:15.410Z,6.4
2017-03-26T04:51:16.722Z,6.38
2017-03-26T04:52:17.972Z,6.35
2017-03-26T04:53:19.212Z,6.43
2017-03-26T04:54:20.450Z,6.38
2017-03-26T04:55:21.693Z,6.4
2017-03-26T04:56:22.926Z,6.43
2017-03-26T04:57:24.168Z,6.46
2017-03-26T04:58:25.566Z,6.33
2017-03-26T04:59:26.815Z,6.36
2017-03-26T05:00:28.052Z,6.38
2017-03-26T05:01:29.305Z,6.44
2017-03-26T05:02:30.550Z,6.44
2017-03-26T05:03:31.781Z,6.47
2017-03-26T05:04:33.093Z,6.48
2017-03-26T05:05:34.339Z,6.51
2017-03-26T05:06:35.717Z,6.43
2017-03-26T05:07:36.957Z,6.41
2017-03-26T05:08:38.195Z,6.46
2017-03-26T05:09:39.529Z,6.51
2017-03-26T05:10:40.787Z,6.41
2017-03-26T05:11:42.028Z,6.44
2017-03-26T05:12:43.270Z,6.47
2017-03-26T05:13:44.504Z,6.51
2017-03-26T05:14:45.814Z,6.44
2017-03-26T05:15:47.071Z,6.47
2017-03-26T05:16:48.374Z,6.44
2017-03-26T05:17:49.605Z,6.44
2017-03-26T05:18:50.865Z,6.5
2017-03-26T05:19:52.077Z,6.48
2017-03-26T05:20:53.357Z,6.53
2017-03-26T05:21:54.587Z,6.53
2017-03-26T05:22:55.841Z,6.5
2017-03-26T05:23:57.110Z,6.5
2017-03-26T05:24:58.419Z,6.46
2017-03-26T05:25:59.656Z,6.48
2017-03-26T05:27:00.891Z,6.53
2017-03-26T05:28:02.236Z,6.44
2017-03-26T05:29:03.475Z,6.47
2017-03-26T05:30:04.768Z,6.47
2017-03-26T05:31:06.015Z,6.48
2017-03-26T05:32:07.240Z,6.4
2017-03-26T05:33:08.470Z,6.47
2017-03-26T05:34:09.780Z,6.5
2017-03-26T05:35:11.032Z,6.43
2017-03-26T05:36:12.339Z,6.46
2017-03-26T05:37:13.583Z,6.54
2017-03-26T05:38:14.954Z,6.5
2017-03-26T05:39:16.162Z,6.53
2017-03-26T05:40:17.445Z,6.61
2017-03-26T05:41:18.668Z,6.56
2017-03-26T05:42:19.881Z,6.53
2017-03-26T05:43:21.111Z,6.58
2017-03-26T05:44:22.359Z,6.58
2017-03-26T05:45:23.597Z,6.56
2017-03-26T05:46:24.836Z,6.56
2017-03-26T05:47:26.131Z,6.62
2017-03-26T05:48:27.454Z,6.59
2017-03-26T05:49:28.679Z,6.65
2017-03-26T05:50:29.937Z,6.69
2017-03-26T05:51:31.168Z,6.71
2017-03-26T05:52:32.414Z,6.66
2017-03-26T05:53:33.653Z,6.56
2017-03-26T05:54:34.907Z,6.72
2017-03-26T05:55:36.214Z,6.68
2017-03-26T05:56:37.492Z,6.61
2017-03-26T05:57:38.696Z,6.66
2017-03-26T05:58:39.932Z,6.59
2017-03-26T05:59:41.172Z,6.66
2017-03-26T06:00:42.407Z,6.66
2017-03-26T06:01:43.746Z,6.73
2017-03-26T06:02:44.975Z,6.72
2017-03-26T06:03:46.273Z,6.73
2017-03-26T06:04:47.498Z,6.72
2017-03-26T06:05:48.716Z,6.72
2017-03-26T06:06:49.967Z,6.77
2017-03-26T06:07:51.299Z,6.68
2017-03-26T06:08:52.534Z,6.8
2017-03-26T06:09:53.808Z,6.8
2017-03-26T06:10:55.061Z,6.76
2017-03-26T06:11:56.316Z,6.87
2017-03-26T06:12:57.533Z,6.86
2017-03-26T06:13:58.780Z,6.83
2017-03-26T06:15:00.131Z,6.86
2017-03-26T06:16:01.333Z,6.8
2017-03-26T06:17:02.566Z,6.86
2017-03-26T06:18:03.826Z,6.9
2017-03-26T06:19:05.048Z,6.84
2017-03-26T06:20:06.310Z,6.89
2017-03-26T06:21:07.646Z,6.98
2017-03-26T06:22:08.777Z,7.09
2017-03-26T06:23:10.005Z,7.02
2017-03-26T06:24:11.279Z,6.97
2017-03-26T06:25:12.517Z,7.13
2017-03-26T06:26:13.835Z,7.05
2017-03-26T06:27:15.094Z,7.01
2017-03-26T06:28:16.328Z,7.09
2017-03-26T06:29:17.582Z,7.07
2017-03-26T06:30:18.941Z,7.07
2017-03-26T06:31:20.156Z,7.08
2017-03-26T06:32:21.402Z,7.13
2017-03-26T06:33:22.667Z,7.17
2017-03-26T06:34:23.931Z,7.29
2017-03-26T06:35:25.196Z,7.34
2017-03-26T06:36:26.417Z,7.38
2017-03-26T06:37:27.652Z,7.5
2017-03-26T06:38:28.889Z,7.53
2017-03-26T06:39:30.154Z,7.67
2017-03-26T06:40:31.443Z,7.79
2017-03-26T06:41:32.700Z,7.82
2017-03-26T06:42:33.992Z,7.97
2017-03-26T06:43:35.252Z,8.08
2017-03-26T06:44:36.463Z,8.22
2017-03-26T06:45:37.707Z,8.44
2017-03-26T06:46:39.013Z,8.71
2017-03-26T06:47:40.283Z,8.96
2017-03-26T06:48:41.551Z,9.18
2017-03-26T06:49:42.802Z,9.48
2017-03-26T06:50:44.131Z,9.63
2017-03-26T06:51:45.394Z,9.85
2017-03-26T06:52:46.699Z,10.19
2017-03-26T06:53:47.918Z,10.44
2017-03-26T06:54:49.205Z,10.59
2017-03-26T06:55:50.432Z,10.7
2017-03-26T06:56:51.664Z,10.92
2017-03-26T06:57:52.903Z,11.13
2017-03-26T06:58:54.170Z,11.54
2017-03-26T06:59:55.427Z,12.01
2017-03-26T07:00:56.662Z,12.44
2017-03-26T07:01:58.092Z,12.67
2017-03-26T07:02:59.346Z,12.96
2017-03-26T07:04:00.584Z,13.36
2017-03-26T07:05:01.822Z,13.55
2017-03-26T07:06:03.065Z,13.69
2017-03-26T07:07:04.309Z,13.76
2017-03-26T07:08:05.554Z,14.2
2017-03-26T07:09:06.778Z,14.25
2017-03-26T07:10:08.021Z,14.31
2017-03-26T07:11:09.264Z,14.31
2017-03-26T07:12:10.626Z,14.32
2017-03-26T07:13:11.910Z,14.34
2017-03-26T07:14:13.161Z,14.57
2017-03-26T07:15:14.378Z,14.61
2017-03-26T07:16:15.636Z,14.62
2017-03-26T07:17:16.894Z,14.87
2017-03-26T07:18:18.213Z,14.98
2017-03-26T07:19:19.474Z,15.11
2017-03-26T07:20:20.714Z,15.28
2017-03-26T07:21:21.961Z,15.28
2017-03-26T07:22:23.211Z,15.35
2017-03-26T07:23:24.557Z,15.42
2017-03-26T07:24:25.831Z,15.56
2017-03-26T07:25:27.072Z,15.82
2017-03-26T07:26:28.317Z,15.86
2017-03-26T07:27:29.561Z,15.96
2017-03-26T07:28:30.799Z,15.94
2017-03-26T07:29:32.175Z,15.94
2017-03-26T07:30:33.455Z,16.06
2017-03-26T07:31:34.717Z,16.01
2017-03-26T07:32:35.964Z,16.14
2017-03-26T07:33:37.229Z,16.31
2017-03-26T07:34:38.460Z,16.5
2017-03-26T07:35:39.722Z,16.62
2017-03-26T07:36:40.962Z,16.52
2017-03-26T07:37:42.208Z,16.92
2017-03-26T07:38:43.494Z,17.23
2017-03-26T07:39:44.709Z,17.63
2017-03-26T07:40:45.954Z,17.71
2017-03-26T07:41:47.205Z,17.91
2017-03-26T07:42:48.570Z,18.04
2017-03-26T07:43:49.904Z,18.18
2017-03-26T07:44:51.242Z,18.37
2017-03-26T07:45:52.484Z,18.27
2017-03-26T07:46:53.782Z,17.89
2017-03-26T07:47:55.019Z,17.85
2017-03-26T07:48:56.268Z,17.88
2017-03-26T07:49:57.519Z,18
2017-03-26T07:50:58.766Z,17.99
2017-03-26T07:52:00.082Z,18.1
2017-03-26T07:53:01.320Z,18.27
2017-03-26T07:54:02.560Z,18.37
2017-03-26T07:55:03.911Z,18.67
2017-03-26T07:56:05.155Z,18.84
2017-03-26T07:57:06.433Z,19.05
2017-03-26T07:58:07.677Z,19.28
2017-03-26T07:59:08.934Z,19.13
2017-03-26T08:00:10.239Z,18.95
2017-03-26T08:01:11.534Z,18.77
2017-03-26T08:02:12.837Z,18.8
2017-03-26T08:03:14.080Z,18.87
2017-03-26T08:04:15.349Z,19.14
2017-03-26T08:05:16.567Z,19.36
2017-03-26T08:06:17.830Z,19.54
2017-03-26T08:07:19.105Z,19.55
2017-03-26T08:08:20.317Z,19.54
2017-03-26T08:09:21.581Z,19.65
2017-03-26T08:10:22.843Z,19.84
2017-03-26T08:11:24.095Z,19.95
2017-03-26T08:12:25.340Z,19.73
2017-03-26T08:13:26.635Z,19.68
2017-03-26T08:14:27.879Z,19.72
2017-03-26T08:15:29.239Z,19.78
2017-03-26T08:16:30.369Z,20.1
2017-03-26T08:17:31.821Z,20.5
2017-03-26T08:18:33.068Z,20.77
2017-03-26T08:19:34.317Z,20.99
2017-03-26T08:20:35.672Z,21.02
2017-03-26T08:21:36.938Z,21.02
2017-03-26T08:22:38.210Z,21.26
2017-03-26T08:23:39.471Z,21.32
2017-03-26T08:24:40.718Z,21.19
2017-03-26T08:25:42.029Z,21.13
2017-03-26T08:26:43.285Z,21.11
2017-03-26T08:27:44.514Z,21.39
2017-03-26T08:28:45.761Z,21.5
2017-03-26T08:29:47.003Z,21.69
2017-03-26T08:30:48.370Z,21.72
2017-03-26T08:31:49.686Z,21.75
2017-03-26T08:32:50.922Z,21.85
2017-03-26T08:33:52.201Z,21.94
2017-03-26T08:34:53.462Z,21.71
2017-03-26T08:35:54.712Z,21.59
2017-03-26T08:36:55.970Z,21.46
2017-03-26T08:37:57.271Z,21.44
2017-03-26T08:38:58.527Z,21.66
2017-03-26T08:39:59.893Z,21.92
2017-03-26T08:41:01.129Z,21.99
2017-03-26T08:42:02.389Z,22.13
2017-03-26T08:43:03.646Z,21.88
2017-03-26T08:44:04.910Z,21.78
2017-03-26T08:45:06.164Z,22.07
2017-03-26T08:46:07.430Z,22.34
2017-03-26T08:47:08.665Z,22.78
2017-03-26T08:48:09.941Z,22.67
2017-03-26T08:49:11.263Z,22.28
2017-03-26T08:50:12.498Z,22.04
2017-03-26T08:51:13.813Z,21.95
2017-03-26T08:52:15.071Z,21.74
2017-03-26T08:53:16.339Z,21.53
2017-03-26T08:54:17.586Z,21.39
2017-03-26T08:55:18.853Z,21.44
2017-03-26T08:56:20.112Z,21.75
2017-03-26T08:57:21.375Z,21.9
2017-03-26T08:58:22.630Z,22.04
2017-03-26T08:59:23.872Z,22.06
2017-03-26T09:00:25.120Z,21.74
2017-03-26T09:01:26.384Z,21.45
2017-03-26T09:02:27.832Z,21.32
2017-03-26T09:03:28.968Z,21.13
2017-03-26T09:04:30.332Z,21.26
2017-03-26T09:05:31.579Z,21.29
2017-03-26T09:06:32.844Z,21.29
2017-03-26T09:07:34.106Z,21.36
2017-03-26T09:08:35.428Z,21.24
2017-03-26T09:09:36.692Z,20.99
2017-03-26T09:10:38.026Z,20.83
2017-03-26T09:11:39.268Z,20.9
2017-03-26T09:12:40.523Z,20.99
2017-03-26T09:13:41.968Z,20.65
2017-03-26T09:14:43.137Z,20.66
2017-03-26T09:15:44.392Z,20.81
2017-03-26T09:16:45.651Z,21.04
2017-03-26T09:17:46.898Z,21.21
2017-03-26T09:18:48.233Z,21.38
2017-03-26T09:19:49.500Z,21.76
2017-03-26T09:20:50.801Z,22.04
2017-03-26T09:21:52.032Z,22.25
2017-03-26T09:22:53.291Z,22.25
2017-03-26T09:23:54.556Z,22.13
2017-03-26T09:24:55.807Z,21.98
2017-03-26T09:25:57.059Z,21.66
2017-03-26T09:26:58.404Z,21.75
2017-03-26T09:27:59.657Z,21.99
2017-03-26T09:29:00.918Z,22.06
2017-03-26T09:30:02.167Z,22.02
2017-03-26T09:31:03.465Z,22.13
2017-03-26T09:32:04.728Z,22.12
2017-03-26T09:33:06.055Z,21.97
2017-03-26T09:34:07.329Z,21.94
2017-03-26T09:35:08.571Z,22.12
2017-03-26T09:36:09.824Z,22.07
2017-03-26T09:37:11.073Z,21.6
2017-03-26T09:38:12.354Z,21.29
2017-03-26T09:39:13.618Z,21.26
2017-03-26T09:40:14.855Z,21.34
2017-03-26T09:41:16.172Z,21.66
2017-03-26T09:42:17.445Z,21.76
2017-03-26T09:43:18.694Z,21.45
2017-03-26T09:44:20.082Z,21.38
2017-03-26T09:45:21.481Z,20.91
2017-03-26T09:46:22.731Z,20.74
2017-03-26T09:47:23.993Z,20.65
2017-03-26T09:48:25.285Z,20.43
2017-03-26T09:49:26.508Z,19.98
2017-03-26T09:50:27.853Z,19.91
2017-03-26T09:51:29.115Z,19.79
2017-03-26T09:52:30.410Z,20.08
2017-03-26T09:53:31.655Z,20.64
2017-03-26T09:54:32.919Z,21.34
2017-03-26T09:55:34.204Z,22.19
2017-03-26T09:56:35.455Z,22.77
2017-03-26T09:57:36.713Z,23.34
2017-03-26T09:58:38.000Z,23.49
2017-03-26T09:59:39.258Z,23.22
2017-03-26T10:00:40.493Z,23.39
2017-03-26T10:01:41.779Z,23.87
2017-03-26T10:02:43.036Z,24.17
2017-03-26T10:03:44.289Z,24.91
2017-03-26T10:04:45.566Z,25
2017-03-26T10:05:46.816Z,25.05
2017-03-26T10:06:48.213Z,25.31
2017-03-26T10:07:49.596Z,25.87
2017-03-26T10:08:50.874Z,25.71
2017-03-26T10:09:52.131Z,26.02
2017-03-26T10:10:53.415Z,26.11
2017-03-26T10:11:54.680Z,26.06
2017-03-26T10:12:55.921Z,25.82
2017-03-26T10:13:57.214Z,25.83
2017-03-26T10:14:58.461Z,26.04
2017-03-26T10:15:59.707Z,26.32
2017-03-26T10:17:00.999Z,26.04
2017-03-26T10:18:02.255Z,26.02
2017-03-26T10:19:03.592Z,25.91
2017-03-26T10:20:04.815Z,25.61
2017-03-26T10:21:06.097Z,25.32
2017-03-26T10:22:07.425Z,25.52
2017-03-26T10:23:08.627Z,25.87
2017-03-26T10:24:09.981Z,26.43
2017-03-26T10:25:11.204Z,26.49
2017-03-26T10:26:12.513Z,25.79
2017-03-26T10:27:13.793Z,25.35
2017-03-26T10:28:15.078Z,25.19
2017-03-26T10:29:16.299Z,25.32
2017-03-26T10:30:17.556Z,25.3
2017-03-26T10:31:18.834Z,25.39
2017-03-26T10:32:20.102Z,25.37
2017-03-26T10:33:21.364Z,25.07
2017-03-26T10:34:22.642Z,25.19
2017-03-26T10:35:23.892Z,25.06
2017-03-26T10:36:25.128Z,24.6
2017-03-26T10:37:26.412Z,24.14
2017-03-26T10:38:27.680Z,24.04
2017-03-26T10:39:28.943Z,23.86
2017-03-26T10:40:30.221Z,24.37
2017-03-26T10:41:31.446Z,24.79
2017-03-26T10:42:32.705Z,24.75
2017-03-26T10:43:34.016Z,24.29
2017-03-26T10:44:35.297Z,24.13
2017-03-26T10:45:36.598Z,23.92
2017-03-26T10:46:37.851Z,23.72
2017-03-26T10:47:39.133Z,23.61
2017-03-26T10:48:40.370Z,23.71
2017-03-26T10:49:41.616Z,23.39
2017-03-26T10:50:42.877Z,23.01
2017-03-26T10:51:44.138Z,22.52
2017-03-26T10:52:45.398Z,21.72
2017-03-26T10:53:46.647Z,21.76
2017-03-26T10:54:47.937Z,21.34
2017-03-26T10:55:49.154Z,20.59
2017-03-26T10:56:50.493Z,19.7
2017-03-26T10:57:51.742Z,19.29
2017-03-26T10:58:53.014Z,18.74
2017-03-26T10:59:54.374Z,18.33
2017-03-26T11:00:55.638Z,18.13
2017-03-26T11:01:56.901Z,17.89
2017-03-26T11:02:58.283Z,17.78
2017-03-26T11:03:59.526Z,17.76
2017-03-26T11:05:00.777Z,17.79
2017-03-26T11:06:02.037Z,17.51
2017-03-26T11:07:03.263Z,17
2017-03-26T11:08:04.533Z,16.77
2017-03-26T11:09:06.086Z,16.33
2017-03-26T11:10:07.344Z,15.96
2017-03-26T11:11:08.589Z,15.92
2017-03-26T11:12:09.863Z,15.93
2017-03-26T11:13:11.117Z,15.78
2017-03-26T11:14:12.448Z,15.66
2017-03-26T11:15:13.760Z,15.51
2017-03-26T11:16:15.012Z,15.43
2017-03-26T11:17:16.271Z,15.39
2017-03-26T11:18:17.512Z,15.38
2017-03-26T11:19:18.772Z,15.24
2017-03-26T11:20:20.029Z,15.35
2017-03-26T11:21:21.276Z,15.3
2017-03-26T11:22:22.532Z,15.33
2017-03-26T11:23:23.859Z,15.26
2017-03-26T11:24:25.167Z,15.11
2017-03-26T11:25:26.407Z,14.93
2017-03-26T11:26:27.705Z,14.71
2017-03-26T11:27:28.957Z,14.65
2017-03-26T11:28:30.278Z,14.65
2017-03-26T11:29:31.555Z,14.49
2017-03-26T11:30:32.780Z,14.53
2017-03-26T11:31:34.056Z,14.65
2017-03-26T11:32:35.296Z,14.75
2017-03-26T11:33:36.551Z,14.83
2017-03-26T11:34:37.855Z,14.69
2017-03-26T11:35:39.130Z,14.56
2017-03-26T11:36:40.408Z,14.49
2017-03-26T11:37:41.648Z,14.46
2017-03-26T11:38:42.885Z,14.54
2017-03-26T11:39:44.197Z,14.43
2017-03-26T11:40:45.436Z,14.38
2017-03-26T11:41:46.680Z,14.44
2017-03-26T11:42:47.915Z,14.46
2017-03-26T11:43:49.154Z,14.5
2017-03-26T11:44:50.551Z,14.54
2017-03-26T11:45:51.811Z,14.44
2017-03-26T11:46:53.061Z,14.32
2017-03-26T11:47:54.342Z,14.32
2017-03-26T11:48:55.596Z,14.29
2017-03-26T11:49:56.820Z,14.35
2017-03-26T11:50:58.126Z,14.32
2017-03-26T11:51:59.435Z,14.24
2017-03-26T11:53:00.672Z,14.34
2017-03-26T11:54:02.026Z,14.2
2017-03-26T11:55:03.246Z,14.25
2017-03-26T11:56:04.493Z,14.14
2017-03-26T11:57:05.733Z,14.2
2017-03-26T11:58:06.972Z,14.04
2017-03-26T11:59:08.304Z,14.12
2017-03-26T12:00:09.551Z,14.14
2017-03-26T12:01:10.791Z,14.12
2017-03-26T12:02:12.099Z,14.19
2017-03-26T12:03:13.366Z,14.32
2017-03-26T12:04:14.606Z,14.5
2017-03-26T12:05:15.895Z,14.57
2017-03-26T12:06:17.147Z,14.61
2017-03-26T12:07:18.392Z,14.64
2017-03-26T12:08:19.613Z,14.62
2017-03-26T12:09:20.849Z,14.53
2017-03-26T12:10:22.100Z,14.47
2017-03-26T12:11:23.443Z,14.31
2017-03-26T12:12:24.701Z,14.32
2017-03-26T12:13:25.953Z,14.38
2017-03-26T12:14:27.191Z,14.32
2017-03-26T12:15:28.441Z,14.32
2017-03-26T12:16:29.697Z,14.24
2017-03-26T12:17:30.976Z,14.25
2017-03-26T12:18:32.227Z,14.28
2017-03-26T12:19:33.472Z,14.21
2017-03-26T12:20:34.702Z,14.25
2017-03-26T12:21:35.948Z,14.21
2017-03-26T12:22:37.195Z,14.2
2017-03-26T12:23:38.432Z,14.16
2017-03-26T12:24:39.819Z,14.14
2017-03-26T12:25:41.041Z,14.19
2017-03-26T12:26:42.330Z,14.1
2017-03-26T12:27:43.568Z,14.2
2017-03-26T12:28:44.808Z,14.2
2017-03-26T12:29:46.104Z,14.21
2017-03-26T12:30:47.323Z,14.19
2017-03-26T12:31:48.574Z,14.29
2017-03-26T12:32:49.811Z,14.28
2017-03-26T12:33:51.071Z,14.24
2017-03-26T12:34:52.308Z,14.28
2017-03-26T12:35:53.549Z,14.16
2017-03-26T12:36:54.790Z,14.12
2017-03-26T12:37:56.052Z,14.13
2017-03-26T12:38:57.333Z,14.1
2017-03-26T12:39:58.589Z,14.07
2017-03-26T12:40:59.858Z,14.04
2017-03-26T12:42:01.120Z,14.06
2017-03-26T12:43:02.393Z,14.04
2017-03-26T12:44:03.650Z,14.14
2017-03-26T12:45:04.886Z,14.14
2017-03-26T12:46:06.135Z,14.13
2017-03-26T12:47:07.373Z,14.16
2017-03-26T12:48:08.611Z,14.16
2017-03-26T12:49:09.896Z,14.1
2017-03-26T12:50:11.139Z,14.1
2017-03-26T12:51:12.394Z,14.06
2017-03-26T12:52:13.635Z,14.09
2017-03-26T12:53:14.889Z,13.94
2017-03-26T12:54:16.135Z,13.89
2017-03-26T12:55:17.384Z,14.09
2017-03-26T12:56:18.626Z,14.09
2017-03-26T12:57:19.896Z,14.12
2017-03-26T12:58:21.329Z,14.14
2017-03-26T12:59:22.550Z,14.09
2017-03-26T13:00:23.797Z,13.91
2017-03-26T13:01:25.048Z,13.83
2017-03-26T13:02:26.308Z,13.73
2017-03-26T13:03:27.560Z,13.69
2017-03-26T13:04:28.912Z,13.74
2017-03-26T13:05:30.147Z,13.71
2017-03-26T13:06:31.396Z,13.73
2017-03-26T13:07:32.643Z,13.8
2017-03-26T13:08:33.928Z,13.76
2017-03-26T13:09:35.150Z,13.74
2017-03-26T13:10:36.451Z,13.73
2017-03-26T13:11:37.710Z,13.8
2017-03-26T13:12:38.941Z,13.91
2017-03-26T13:13:40.226Z,13.89
2017-03-26T13:14:41.450Z,13.94
2017-03-26T13:15:42.699Z,13.92
2017-03-26T13:16:44.073Z,13.92
2017-03-26T13:17:45.314Z,13.91
2017-03-26T13:18:46.574Z,13.98
2017-03-26T13:19:47.933Z,13.98
2017-03-26T13:20:49.193Z,14.09
2017-03-26T13:21:50.653Z,14.06
2017-03-26T13:22:51.891Z,14.01
2017-03-26T13:23:53.130Z,13.92
2017-03-26T13:24:54.406Z,13.92
2017-03-26T13:25:55.675Z,13.95